Terminal Aerodrome Forecast
Issued by NWS

Home | Current Version | Previous Version | Text Only | Print | Product List | Glossary On
Versions: 1 2 3 4 5 6 7 8 9 10 11 12 13
000
FTUS44 KCRP 272326
TAFLRD
TAF
KLRD 272326Z 2800/2824 15012G20KT P6SM SCT050 OVC200
     FM280300 14013KT P6SM SCT025 BKN150
     FM280800 15011KT P6SM SCT015 BKN150
      TEMPO 2808/2812 5SM BR BKN015
     FM281600 15012G18KT P6SM SCT050 BKN200=

USA.gov is the U.S. government's official web portal to all federal, state and local government web resources and services.